sensor_id;sensor_type;location;lat;lon;timestamp;P1;durP1;ratioP1;P2;durP2;ratioP2
25175;SDS011;13135;55.166;61.286;2023-07-08T00:02:44;7.78;;;5.15;;
25175;SDS011;13135;55.166;61.286;2023-07-08T00:05:29;7.07;;;5.68;;
25175;SDS011;13135;55.166;61.286;2023-07-08T00:08:15;6.87;;;5.20;;
25175;SDS011;13135;55.166;61.286;2023-07-08T00:10:59;6.85;;;5.45;;
25175;SDS011;13135;55.166;61.286;2023-07-08T00:13:44;5.70;;;5.10;;
25175;SDS011;13135;55.166;61.286;2023-07-08T00:16:26;8.70;;;5.55;;
25175;SDS011;13135;55.166;61.286;2023-07-08T00:22:30;7.25;;;5.20;;
25175;SDS011;13135;55.166;61.286;2023-07-08T00:25:14;11.30;;;5.12;;
25175;SDS011;13135;55.166;61.286;2023-07-08T00:27:59;7.45;;;5.20;;
25175;SDS011;13135;55.166;61.286;2023-07-08T00:30:47;7.12;;;5.40;;
25175;SDS011;13135;55.166;61.286;2023-07-08T00:33:38;7.45;;;5.40;;
25175;SDS011;13135;55.166;61.286;2023-07-08T00:36:22;7.68;;;5.40;;
25175;SDS011;13135;55.166;61.286;2023-07-08T00:39:10;7.72;;;5.93;;
25175;SDS011;13135;55.166;61.286;2023-07-08T00:41:52;7.87;;;5.70;;
25175;SDS011;13135;55.166;61.286;2023-07-08T00:44:37;7.25;;;5.47;;
25175;SDS011;13135;55.166;61.286;2023-07-08T00:47:22;5.72;;;5.12;;
25175;SDS011;13135;55.166;61.286;2023-07-08T00:50:09;23.33;;;15.77;;
25175;SDS011;13135;55.166;61.286;2023-07-08T00:56:18;7.53;;;5.30;;
25175;SDS011;13135;55.166;61.286;2023-07-08T00:59:06;9.90;;;6.60;;
25175;SDS011;13135;55.166;61.286;2023-07-08T01:01:53;8.43;;;6.22;;
25175;SDS011;13135;55.166;61.286;2023-07-08T01:08:02;6.65;;;5.50;;
25175;SDS011;13135;55.166;61.286;2023-07-08T01:10:46;7.45;;;5.20;;
25175;SDS011;13135;55.166;61.286;2023-07-08T01:13:32;6.30;;;4.93;;
25175;SDS011;13135;55.166;61.286;2023-07-08T01:16:21;7.62;;;5.30;;
25175;SDS011;13135;55.166;61.286;2023-07-08T01:19:14;7.95;;;5.53;;
25175;SDS011;13135;55.166;61.286;2023-07-08T01:22:00;7.55;;;5.20;;
25175;SDS011;13135;55.166;61.286;2023-07-08T01:24:45;10.13;;;5.70;;
25175;SDS011;13135;55.166;61.286;2023-07-08T01:27:33;6.78;;;5.28;;
25175;SDS011;13135;55.166;61.286;2023-07-08T01:30:17;5.65;;;4.45;;
25175;SDS011;13135;55.166;61.286;2023-07-08T01:33:05;5.40;;;4.55;;
25175;SDS011;13135;55.166;61.286;2023-07-08T01:35:51;6.15;;;4.18;;
25175;SDS011;13135;55.166;61.286;2023-07-08T01:38:34;5.87;;;4.35;;
25175;SDS011;13135;55.166;61.286;2023-07-08T01:41:19;4.75;;;4.32;;
25175;SDS011;13135;55.166;61.286;2023-07-08T01:44:18;6.62;;;4.40;;
25175;SDS011;13135;55.166;61.286;2023-07-08T01:46:51;4.45;;;4.03;;
25175;SDS011;13135;55.166;61.286;2023-07-08T01:49:36;6.50;;;4.25;;
25175;SDS011;13135;55.166;61.286;2023-07-08T01:52:23;5.90;;;3.85;;
25175;SDS011;13135;55.166;61.286;2023-07-08T01:55:08;4.20;;;3.80;;
25175;SDS011;13135;55.166;61.286;2023-07-08T01:58:15;4.45;;;4.05;;
25175;SDS011;13135;55.166;61.286;2023-07-08T02:01:17;4.75;;;4.20;;
25175;SDS011;13135;55.166;61.286;2023-07-08T02:04:01;5.35;;;4.30;;
25175;SDS011;13135;55.166;61.286;2023-07-08T02:06:52;6.35;;;4.07;;
25175;SDS011;13135;55.166;61.286;2023-07-08T02:09:40;5.93;;;3.85;;
25175;SDS011;13135;55.166;61.286;2023-07-08T02:12:25;4.87;;;4.32;;
25175;SDS011;13135;55.166;61.286;2023-07-08T02:15:11;7.40;;;4.22;;
25175;SDS011;13135;55.166;61.286;2023-07-08T02:17:56;4.78;;;4.25;;
25175;SDS011;13135;55.166;61.286;2023-07-08T02:20:42;7.22;;;4.97;;
25175;SDS011;13135;55.166;61.286;2023-07-08T02:23:27;6.20;;;4.40;;
25175;SDS011;13135;55.166;61.286;2023-07-08T02:26:11;5.07;;;4.47;;
25175;SDS011;13135;55.166;61.286;2023-07-08T02:28:58;5.47;;;4.55;;
25175;SDS011;13135;55.166;61.286;2023-07-08T02:31:42;6.37;;;4.43;;
25175;SDS011;13135;55.166;61.286;2023-07-08T02:34:26;6.00;;;4.55;;
25175;SDS011;13135;55.166;61.286;2023-07-08T02:37:11;5.65;;;4.60;;
25175;SDS011;13135;55.166;61.286;2023-07-08T02:39:57;6.82;;;4.40;;
25175;SDS011;13135;55.166;61.286;2023-07-08T02:42:43;24.17;;;14.80;;
25175;SDS011;13135;55.166;61.286;2023-07-08T02:45:27;6.55;;;5.03;;
25175;SDS011;13135;55.166;61.286;2023-07-08T02:48:12;6.78;;;4.80;;
25175;SDS011;13135;55.166;61.286;2023-07-08T02:50:59;6.82;;;4.65;;
25175;SDS011;13135;55.166;61.286;2023-07-08T02:53:45;5.82;;;4.60;;
25175;SDS011;13135;55.166;61.286;2023-07-08T02:56:34;11.50;;;5.07;;
25175;SDS011;13135;55.166;61.286;2023-07-08T02:59:19;9.88;;;4.90;;
25175;SDS011;13135;55.166;61.286;2023-07-08T03:02:06;5.20;;;4.70;;
25175;SDS011;13135;55.166;61.286;2023-07-08T03:04:50;7.15;;;4.75;;
25175;SDS011;13135;55.166;61.286;2023-07-08T03:07:37;6.80;;;4.90;;
25175;SDS011;13135;55.166;61.286;2023-07-08T03:10:22;6.90;;;5.18;;
25175;SDS011;13135;55.166;61.286;2023-07-08T03:13:09;6.50;;;4.80;;
25175;SDS011;13135;55.166;61.286;2023-07-08T03:15:56;6.37;;;4.87;;
25175;SDS011;13135;55.166;61.286;2023-07-08T03:18:41;5.60;;;4.68;;
25175;SDS011;13135;55.166;61.286;2023-07-08T03:21:26;9.93;;;4.60;;
25175;SDS011;13135;55.166;61.286;2023-07-08T03:24:12;4.20;;;3.80;;
25175;SDS011;13135;55.166;61.286;2023-07-08T03:26:57;9.00;;;4.32;;
25175;SDS011;13135;55.166;61.286;2023-07-08T03:29:42;4.78;;;4.00;;
25175;SDS011;13135;55.166;61.286;2023-07-08T03:32:29;7.05;;;4.10;;
25175;SDS011;13135;55.166;61.286;2023-07-08T03:35:17;8.73;;;4.22;;
25175;SDS011;13135;55.166;61.286;2023-07-08T03:38:06;6.10;;;4.20;;
25175;SDS011;13135;55.166;61.286;2023-07-08T03:41:14;10.93;;;5.43;;
25175;SDS011;13135;55.166;61.286;2023-07-08T03:44:01;5.85;;;4.12;;
25175;SDS011;13135;55.166;61.286;2023-07-08T03:46:46;8.45;;;4.28;;
25175;SDS011;13135;55.166;61.286;2023-07-08T03:49:34;26.65;;;22.55;;
25175;SDS011;13135;55.166;61.286;2023-07-08T03:52:27;11.70;;;9.05;;
25175;SDS011;13135;55.166;61.286;2023-07-08T03:55:12;5.10;;;4.35;;
25175;SDS011;13135;55.166;61.286;2023-07-08T03:57:55;7.87;;;4.30;;
25175;SDS011;13135;55.166;61.286;2023-07-08T04:00:40;7.35;;;3.90;;
25175;SDS011;13135;55.166;61.286;2023-07-08T04:03:25;5.03;;;3.70;;
25175;SDS011;13135;55.166;61.286;2023-07-08T04:06:10;5.37;;;4.32;;
25175;SDS011;13135;55.166;61.286;2023-07-08T04:08:55;4.70;;;3.60;;
25175;SDS011;13135;55.166;61.286;2023-07-08T04:11:39;8.93;;;4.12;;
25175;SDS011;13135;55.166;61.286;2023-07-08T04:14:23;5.35;;;3.87;;
25175;SDS011;13135;55.166;61.286;2023-07-08T04:17:10;6.78;;;3.78;;
25175;SDS011;13135;55.166;61.286;2023-07-08T04:19:55;4.72;;;3.85;;
25175;SDS011;13135;55.166;61.286;2023-07-08T04:22:42;4.82;;;3.60;;
25175;SDS011;13135;55.166;61.286;2023-07-08T04:25:27;5.10;;;3.62;;
25175;SDS011;13135;55.166;61.286;2023-07-08T04:28:12;4.30;;;3.12;;
25175;SDS011;13135;55.166;61.286;2023-07-08T04:30:59;3.62;;;3.25;;
25175;SDS011;13135;55.166;61.286;2023-07-08T04:33:43;4.18;;;3.05;;
25175;SDS011;13135;55.166;61.286;2023-07-08T04:36:28;3.95;;;3.40;;
25175;SDS011;13135;55.166;61.286;2023-07-08T04:39:13;6.03;;;3.25;;
25175;SDS011;13135;55.166;61.286;2023-07-08T04:45:14;3.90;;;3.37;;
25175;SDS011;13135;55.166;61.286;2023-07-08T04:47:59;6.18;;;3.58;;
25175;SDS011;13135;55.166;61.286;2023-07-08T04:50:49;3.62;;;3.20;;
25175;SDS011;13135;55.166;61.286;2023-07-08T04:53:36;4.72;;;3.50;;
25175;SDS011;13135;55.166;61.286;2023-07-08T04:56:39;3.25;;;2.95;;
25175;SDS011;13135;55.166;61.286;2023-07-08T04:59:25;5.32;;;2.90;;
25175;SDS011;13135;55.166;61.286;2023-07-08T05:02:08;3.95;;;2.70;;
25175;SDS011;13135;55.166;61.286;2023-07-08T05:04:55;5.68;;;3.53;;
25175;SDS011;13135;55.166;61.286;2023-07-08T05:07:41;6.57;;;3.40;;
25175;SDS011;13135;55.166;61.286;2023-07-08T05:10:26;3.28;;;2.87;;
25175;SDS011;13135;55.166;61.286;2023-07-08T05:13:13;4.45;;;3.97;;
25175;SDS011;13135;55.166;61.286;2023-07-08T05:16:00;4.75;;;3.03;;
25175;SDS011;13135;55.166;61.286;2023-07-08T05:18:46;3.62;;;3.25;;
25175;SDS011;13135;55.166;61.286;2023-07-08T05:21:33;4.30;;;3.42;;
25175;SDS011;13135;55.166;61.286;2023-07-08T05:24:21;5.37;;;3.45;;
25175;SDS011;13135;55.166;61.286;2023-07-08T05:27:05;4.65;;;2.90;;
25175;SDS011;13135;55.166;61.286;2023-07-08T05:29:52;4.18;;;3.10;;
25175;SDS011;13135;55.166;61.286;2023-07-08T05:32:39;4.68;;;2.70;;
25175;SDS011;13135;55.166;61.286;2023-07-08T05:35:23;4.50;;;2.85;;
25175;SDS011;13135;55.166;61.286;2023-07-08T05:38:09;3.30;;;3.00;;
25175;SDS011;13135;55.166;61.286;2023-07-08T05:40:57;5.85;;;3.22;;
25175;SDS011;13135;55.166;61.286;2023-07-08T05:43:40;4.10;;;3.20;;
25175;SDS011;13135;55.166;61.286;2023-07-08T05:46:25;5.80;;;2.92;;
25175;SDS011;13135;55.166;61.286;2023-07-08T05:49:10;3.90;;;2.55;;
25175;SDS011;13135;55.166;61.286;2023-07-08T05:51:56;3.30;;;3.00;;
25175;SDS011;13135;55.166;61.286;2023-07-08T05:54:41;4.80;;;3.12;;
25175;SDS011;13135;55.166;61.286;2023-07-08T05:57:26;3.80;;;3.00;;
25175;SDS011;13135;55.166;61.286;2023-07-08T06:00:11;4.72;;;3.33;;
25175;SDS011;13135;55.166;61.286;2023-07-08T06:02:59;5.50;;;3.60;;
25175;SDS011;13135;55.166;61.286;2023-07-08T06:05:44;4.55;;;3.58;;
25175;SDS011;13135;55.166;61.286;2023-07-08T06:08:28;4.93;;;3.67;;
25175;SDS011;13135;55.166;61.286;2023-07-08T06:11:16;5.60;;;3.75;;
25175;SDS011;13135;55.166;61.286;2023-07-08T06:14:02;3.83;;;3.28;;
25175;SDS011;13135;55.166;61.286;2023-07-08T06:16:52;4.43;;;3.03;;
25175;SDS011;13135;55.166;61.286;2023-07-08T06:19:36;3.05;;;2.70;;
25175;SDS011;13135;55.166;61.286;2023-07-08T06:22:21;6.03;;;2.90;;
25175;SDS011;13135;55.166;61.286;2023-07-08T06:25:07;4.53;;;2.67;;
25175;SDS011;13135;55.166;61.286;2023-07-08T06:27:53;4.93;;;2.95;;
25175;SDS011;13135;55.166;61.286;2023-07-08T06:30:38;4.00;;;2.50;;
25175;SDS011;13135;55.166;61.286;2023-07-08T06:33:28;3.62;;;2.60;;
25175;SDS011;13135;55.166;61.286;2023-07-08T06:36:15;5.35;;;2.90;;
25175;SDS011;13135;55.166;61.286;2023-07-08T06:39:00;2.85;;;2.65;;
25175;SDS011;13135;55.166;61.286;2023-07-08T06:41:46;4.47;;;3.05;;
25175;SDS011;13135;55.166;61.286;2023-07-08T06:44:33;3.85;;;2.78;;
25175;SDS011;13135;55.166;61.286;2023-07-08T06:47:18;5.15;;;2.78;;
25175;SDS011;13135;55.166;61.286;2023-07-08T06:50:06;4.18;;;2.90;;
25175;SDS011;13135;55.166;61.286;2023-07-08T06:52:53;4.90;;;3.37;;
25175;SDS011;13135;55.166;61.286;2023-07-08T06:55:37;3.40;;;3.03;;
25175;SDS011;13135;55.166;61.286;2023-07-08T06:58:22;5.68;;;3.50;;
25175;SDS011;13135;55.166;61.286;2023-07-08T07:01:07;3.20;;;2.90;;
25175;SDS011;13135;55.166;61.286;2023-07-08T07:03:51;3.30;;;3.00;;
25175;SDS011;13135;55.166;61.286;2023-07-08T07:06:37;3.90;;;3.00;;
25175;SDS011;13135;55.166;61.286;2023-07-08T07:09:20;4.72;;;2.97;;
25175;SDS011;13135;55.166;61.286;2023-07-08T07:12:15;3.08;;;2.85;;
25175;SDS011;13135;55.166;61.286;2023-07-08T07:15:02;3.58;;;2.95;;
25175;SDS011;13135;55.166;61.286;2023-07-08T07:17:49;4.05;;;3.35;;
25175;SDS011;13135;55.166;61.286;2023-07-08T07:20:35;5.65;;;3.40;;
25175;SDS011;13135;55.166;61.286;2023-07-08T07:23:19;2.80;;;2.60;;
25175;SDS011;13135;55.166;61.286;2023-07-08T07:26:04;3.10;;;2.60;;
25175;SDS011;13135;55.166;61.286;2023-07-08T07:28:50;3.85;;;2.85;;
25175;SDS011;13135;55.166;61.286;2023-07-08T07:31:35;4.55;;;2.90;;
25175;SDS011;13135;55.166;61.286;2023-07-08T07:34:22;4.28;;;2.85;;
25175;SDS011;13135;55.166;61.286;2023-07-08T07:37:12;4.68;;;3.92;;
25175;SDS011;13135;55.166;61.286;2023-07-08T07:39:59;3.80;;;3.30;;
25175;SDS011;13135;55.166;61.286;2023-07-08T07:42:42;5.28;;;2.95;;
25175;SDS011;13135;55.166;61.286;2023-07-08T07:45:23;4.30;;;3.30;;
25175;SDS011;13135;55.166;61.286;2023-07-08T07:48:06;3.62;;;3.22;;
25175;SDS011;13135;55.166;61.286;2023-07-08T07:50:52;3.65;;;3.35;;
25175;SDS011;13135;55.166;61.286;2023-07-08T07:53:37;3.97;;;3.17;;
25175;SDS011;13135;55.166;61.286;2023-07-08T07:56:21;5.03;;;3.33;;
25175;SDS011;13135;55.166;61.286;2023-07-08T07:59:02;3.72;;;3.35;;
25175;SDS011;13135;55.166;61.286;2023-07-08T08:01:47;5.07;;;3.35;;
25175;SDS011;13135;55.166;61.286;2023-07-08T08:04:32;3.72;;;3.40;;
25175;SDS011;13135;55.166;61.286;2023-07-08T08:07:16;5.15;;;3.75;;
25175;SDS011;13135;55.166;61.286;2023-07-08T08:10:01;4.15;;;3.37;;
25175;SDS011;13135;55.166;61.286;2023-07-08T08:12:48;4.95;;;3.15;;
25175;SDS011;13135;55.166;61.286;2023-07-08T08:15:34;5.47;;;3.40;;
25175;SDS011;13135;55.166;61.286;2023-07-08T08:18:21;5.00;;;3.15;;
25175;SDS011;13135;55.166;61.286;2023-07-08T08:21:08;3.30;;;3.00;;
25175;SDS011;13135;55.166;61.286;2023-07-08T08:23:54;6.15;;;3.37;;
25175;SDS011;13135;55.166;61.286;2023-07-08T08:26:40;4.18;;;3.45;;
25175;SDS011;13135;55.166;61.286;2023-07-08T08:29:28;4.18;;;3.30;;
25175;SDS011;13135;55.166;61.286;2023-07-08T08:32:14;6.47;;;3.97;;
25175;SDS011;13135;55.166;61.286;2023-07-08T08:35:01;4.25;;;3.40;;
25175;SDS011;13135;55.166;61.286;2023-07-08T08:37:46;5.40;;;3.55;;
25175;SDS011;13135;55.166;61.286;2023-07-08T08:40:33;5.32;;;3.65;;
25175;SDS011;13135;55.166;61.286;2023-07-08T08:43:22;5.20;;;3.78;;
25175;SDS011;13135;55.166;61.286;2023-07-08T08:49:10;4.65;;;3.90;;
25175;SDS011;13135;55.166;61.286;2023-07-08T08:52:07;5.37;;;3.85;;
25175;SDS011;13135;55.166;61.286;2023-07-08T08:54:52;5.68;;;4.80;;
25175;SDS011;13135;55.166;61.286;2023-07-08T08:57:47;6.15;;;3.87;;
25175;SDS011;13135;55.166;61.286;2023-07-08T09:00:39;5.47;;;4.60;;
25175;SDS011;13135;55.166;61.286;2023-07-08T09:03:27;7.28;;;4.05;;
25175;SDS011;13135;55.166;61.286;2023-07-08T09:06:11;4.65;;;4.20;;
25175;SDS011;13135;55.166;61.286;2023-07-08T09:08:57;4.95;;;4.15;;
25175;SDS011;13135;55.166;61.286;2023-07-08T09:11:50;5.18;;;4.00;;
25175;SDS011;13135;55.166;61.286;2023-07-08T09:14:36;6.72;;;4.20;;
25175;SDS011;13135;55.166;61.286;2023-07-08T09:17:27;6.87;;;4.20;;
25175;SDS011;13135;55.166;61.286;2023-07-08T09:20:15;5.43;;;4.70;;
25175;SDS011;13135;55.166;61.286;2023-07-08T09:23:01;6.07;;;4.43;;
25175;SDS011;13135;55.166;61.286;2023-07-08T09:25:49;5.05;;;4.43;;
25175;SDS011;13135;55.166;61.286;2023-07-08T09:28:38;5.37;;;4.75;;
25175;SDS011;13135;55.166;61.286;2023-07-08T09:31:28;7.15;;;4.50;;
25175;SDS011;13135;55.166;61.286;2023-07-08T09:34:14;7.25;;;4.90;;
25175;SDS011;13135;55.166;61.286;2023-07-08T09:36:59;5.00;;;4.50;;
25175;SDS011;13135;55.166;61.286;2023-07-08T09:39:46;23.30;;;17.85;;
25175;SDS011;13135;55.166;61.286;2023-07-08T09:42:32;7.65;;;5.82;;
25175;SDS011;13135;55.166;61.286;2023-07-08T09:45:20;6.87;;;5.37;;
25175;SDS011;13135;55.166;61.286;2023-07-08T09:48:04;8.90;;;5.78;;
25175;SDS011;13135;55.166;61.286;2023-07-08T09:50:51;6.90;;;5.95;;
25175;SDS011;13135;55.166;61.286;2023-07-08T09:53:36;8.15;;;6.47;;
25175;SDS011;13135;55.166;61.286;2023-07-08T09:56:20;7.68;;;6.20;;
25175;SDS011;13135;55.166;61.286;2023-07-08T09:59:05;10.18;;;7.15;;
25175;SDS011;13135;55.166;61.286;2023-07-08T10:01:52;8.23;;;6.90;;
25175;SDS011;13135;55.166;61.286;2023-07-08T10:04:39;9.15;;;7.28;;
25175;SDS011;13135;55.166;61.286;2023-07-08T10:07:23;9.10;;;7.05;;
25175;SDS011;13135;55.166;61.286;2023-07-08T10:10:12;6.80;;;6.05;;
25175;SDS011;13135;55.166;61.286;2023-07-08T10:13:22;7.55;;;6.43;;
25175;SDS011;13135;55.166;61.286;2023-07-08T10:16:12;9.20;;;6.60;;
25175;SDS011;13135;55.166;61.286;2023-07-08T10:18:56;9.02;;;7.30;;
25175;SDS011;13135;55.166;61.286;2023-07-08T10:25:10;8.93;;;6.93;;
25175;SDS011;13135;55.166;61.286;2023-07-08T10:27:57;8.07;;;7.05;;
25175;SDS011;13135;55.166;61.286;2023-07-08T10:30:46;8.23;;;7.07;;
25175;SDS011;13135;55.166;61.286;2023-07-08T10:33:36;7.25;;;6.35;;
25175;SDS011;13135;55.166;61.286;2023-07-08T10:36:30;7.93;;;6.68;;
25175;SDS011;13135;55.166;61.286;2023-07-08T10:39:26;11.43;;;7.50;;
25175;SDS011;13135;55.166;61.286;2023-07-08T10:42:12;8.57;;;7.40;;
25175;SDS011;13135;55.166;61.286;2023-07-08T10:45:02;12.70;;;8.18;;
25175;SDS011;13135;55.166;61.286;2023-07-08T10:47:59;12.10;;;7.97;;
25175;SDS011;13135;55.166;61.286;2023-07-08T10:57:41;9.05;;;6.78;;
25175;SDS011;13135;55.166;61.286;2023-07-08T11:03:45;9.13;;;6.90;;
25175;SDS011;13135;55.166;61.286;2023-07-08T11:09:44;8.40;;;7.03;;
25175;SDS011;13135;55.166;61.286;2023-07-08T11:12:30;8.45;;;7.62;;
25175;SDS011;13135;55.166;61.286;2023-07-08T11:19:18;8.23;;;7.35;;
25175;SDS011;13135;55.166;61.286;2023-07-08T11:22:08;7.65;;;6.85;;
25175;SDS011;13135;55.166;61.286;2023-07-08T11:24:49;9.27;;;7.47;;
25175;SDS011;13135;55.166;61.286;2023-07-08T11:27:34;16.40;;;14.70;;
25175;SDS011;13135;55.166;61.286;2023-07-08T11:30:21;8.88;;;7.85;;
25175;SDS011;13135;55.166;61.286;2023-07-08T11:36:32;7.65;;;6.85;;
25175;SDS011;13135;55.166;61.286;2023-07-08T11:42:34;8.10;;;6.90;;
25175;SDS011;13135;55.166;61.286;2023-07-08T11:45:36;7.50;;;6.60;;
25175;SDS011;13135;55.166;61.286;2023-07-08T11:51:39;8.38;;;6.93;;
25175;SDS011;13135;55.166;61.286;2023-07-08T11:54:28;7.97;;;7.18;;
25175;SDS011;13135;55.166;61.286;2023-07-08T11:57:16;8.23;;;7.00;;
25175;SDS011;13135;55.166;61.286;2023-07-08T12:03:21;7.68;;;6.65;;
25175;SDS011;13135;55.166;61.286;2023-07-08T12:09:28;7.47;;;6.65;;
25175;SDS011;13135;55.166;61.286;2023-07-08T12:18:27;7.80;;;6.57;;
25175;SDS011;13135;55.166;61.286;2023-07-08T12:21:11;7.68;;;6.97;;
25175;SDS011;13135;55.166;61.286;2023-07-08T12:27:21;7.78;;;6.97;;
25175;SDS011;13135;55.166;61.286;2023-07-08T12:33:33;8.65;;;6.60;;
25175;SDS011;13135;55.166;61.286;2023-07-08T12:36:21;12.05;;;6.80;;
25175;SDS011;13135;55.166;61.286;2023-07-08T12:39:32;9.75;;;6.80;;
25175;SDS011;13135;55.166;61.286;2023-07-08T12:42:30;9.43;;;7.00;;
25175;SDS011;13135;55.166;61.286;2023-07-08T12:45:38;11.10;;;7.72;;
25175;SDS011;13135;55.166;61.286;2023-07-08T12:48:42;8.77;;;7.65;;
25175;SDS011;13135;55.166;61.286;2023-07-08T12:51:34;10.13;;;7.45;;
25175;SDS011;13135;55.166;61.286;2023-07-08T12:54:56;10.10;;;7.47;;
25175;SDS011;13135;55.166;61.286;2023-07-08T12:58:03;8.05;;;7.15;;
25175;SDS011;13135;55.166;61.286;2023-07-08T13:01:10;8.07;;;7.05;;
25175;SDS011;13135;55.166;61.286;2023-07-08T13:04:19;9.23;;;7.32;;
25175;SDS011;13135;55.166;61.286;2023-07-08T13:07:22;10.57;;;7.40;;
25175;SDS011;13135;55.166;61.286;2023-07-08T13:10:15;8.30;;;7.50;;
25175;SDS011;13135;55.166;61.286;2023-07-08T13:21:16;9.80;;;7.45;;
25175;SDS011;13135;55.166;61.286;2023-07-08T13:24:12;8.75;;;7.50;;
25175;SDS011;13135;55.166;61.286;2023-07-08T13:26:58;8.43;;;7.15;;
25175;SDS011;13135;55.166;61.286;2023-07-08T13:29:51;8.32;;;6.93;;
25175;SDS011;13135;55.166;61.286;2023-07-08T13:33:00;9.55;;;7.40;;
25175;SDS011;13135;55.166;61.286;2023-07-08T13:35:50;8.55;;;6.87;;
25175;SDS011;13135;55.166;61.286;2023-07-08T13:38:38;11.45;;;7.53;;
25175;SDS011;13135;55.166;61.286;2023-07-08T13:41:23;10.18;;;7.78;;
25175;SDS011;13135;55.166;61.286;2023-07-08T13:44:19;12.60;;;7.97;;
25175;SDS011;13135;55.166;61.286;2023-07-08T13:50:46;9.45;;;7.37;;
25175;SDS011;13135;55.166;61.286;2023-07-08T13:53:42;11.50;;;7.55;;
25175;SDS011;13135;55.166;61.286;2023-07-08T13:56:32;9.13;;;7.25;;
25175;SDS011;13135;55.166;61.286;2023-07-08T13:59:19;10.68;;;7.72;;
25175;SDS011;13135;55.166;61.286;2023-07-08T14:02:13;10.77;;;7.75;;
25175;SDS011;13135;55.166;61.286;2023-07-08T14:04:51;13.15;;;8.10;;
25175;SDS011;13135;55.166;61.286;2023-07-08T14:07:36;8.38;;;7.40;;
25175;SDS011;13135;55.166;61.286;2023-07-08T14:10:21;10.32;;;7.80;;
25175;SDS011;13135;55.166;61.286;2023-07-08T14:13:07;9.18;;;7.65;;
25175;SDS011;13135;55.166;61.286;2023-07-08T14:15:52;13.25;;;11.10;;
25175;SDS011;13135;55.166;61.286;2023-07-08T14:18:36;10.10;;;8.23;;
25175;SDS011;13135;55.166;61.286;2023-07-08T14:21:27;10.48;;;8.23;;
25175;SDS011;13135;55.166;61.286;2023-07-08T14:24:13;9.27;;;7.10;;
25175;SDS011;13135;55.166;61.286;2023-07-08T14:27:01;10.57;;;7.68;;
25175;SDS011;13135;55.166;61.286;2023-07-08T14:29:47;9.65;;;7.90;;
25175;SDS011;13135;55.166;61.286;2023-07-08T14:32:32;9.88;;;7.85;;
25175;SDS011;13135;55.166;61.286;2023-07-08T14:35:19;9.27;;;7.62;;
25175;SDS011;13135;55.166;61.286;2023-07-08T14:38:09;13.05;;;7.53;;
25175;SDS011;13135;55.166;61.286;2023-07-08T14:40:55;11.10;;;7.57;;
25175;SDS011;13135;55.166;61.286;2023-07-08T14:43:42;10.85;;;7.80;;
25175;SDS011;13135;55.166;61.286;2023-07-08T14:46:27;9.60;;;7.50;;
25175;SDS011;13135;55.166;61.286;2023-07-08T14:49:21;10.35;;;8.02;;
25175;SDS011;13135;55.166;61.286;2023-07-08T14:52:27;12.45;;;7.95;;
25175;SDS011;13135;55.166;61.286;2023-07-08T14:55:29;10.27;;;8.27;;
25175;SDS011;13135;55.166;61.286;2023-07-08T14:58:44;13.35;;;8.68;;
25175;SDS011;13135;55.166;61.286;2023-07-08T15:01:29;12.18;;;8.48;;
25175;SDS011;13135;55.166;61.286;2023-07-08T15:04:16;16.02;;;12.30;;
25175;SDS011;13135;55.166;61.286;2023-07-08T15:07:00;25.88;;;21.00;;
25175;SDS011;13135;55.166;61.286;2023-07-08T15:09:50;12.88;;;9.75;;
25175;SDS011;13135;55.166;61.286;2023-07-08T15:12:40;11.07;;;8.88;;
25175;SDS011;13135;55.166;61.286;2023-07-08T15:18:59;12.93;;;10.05;;
25175;SDS011;13135;55.166;61.286;2023-07-08T15:22:03;13.90;;;9.20;;
25175;SDS011;13135;55.166;61.286;2023-07-08T15:33:16;11.02;;;8.80;;
25175;SDS011;13135;55.166;61.286;2023-07-08T15:39:29;12.30;;;9.63;;
25175;SDS011;13135;55.166;61.286;2023-07-08T15:42:18;13.77;;;9.90;;
25175;SDS011;13135;55.166;61.286;2023-07-08T15:52:01;13.05;;;10.75;;
25175;SDS011;13135;55.166;61.286;2023-07-08T15:55:09;16.45;;;11.20;;
25175;SDS011;13135;55.166;61.286;2023-07-08T15:57:56;15.95;;;10.80;;
25175;SDS011;13135;55.166;61.286;2023-07-08T16:01:38;16.65;;;10.10;;
25175;SDS011;13135;55.166;61.286;2023-07-08T16:04:28;12.98;;;9.60;;
25175;SDS011;13135;55.166;61.286;2023-07-08T16:07:32;11.38;;;9.68;;
25175;SDS011;13135;55.166;61.286;2023-07-08T16:10:48;14.95;;;10.25;;
25175;SDS011;13135;55.166;61.286;2023-07-08T16:13:48;15.65;;;10.32;;
25175;SDS011;13135;55.166;61.286;2023-07-08T16:16:43;17.17;;;11.07;;
25175;SDS011;13135;55.166;61.286;2023-07-08T16:26:46;17.65;;;11.95;;
25175;SDS011;13135;55.166;61.286;2023-07-08T16:36:33;18.33;;;12.05;;
25175;SDS011;13135;55.166;61.286;2023-07-08T16:39:14;15.43;;;11.80;;
25175;SDS011;13135;55.166;61.286;2023-07-08T16:42:23;15.55;;;11.93;;
25175;SDS011;13135;55.166;61.286;2023-07-08T16:58:33;15.35;;;12.00;;
25175;SDS011;13135;55.166;61.286;2023-07-08T17:01:39;18.50;;;13.07;;
25175;SDS011;13135;55.166;61.286;2023-07-08T17:07:45;20.88;;;13.35;;
25175;SDS011;13135;55.166;61.286;2023-07-08T17:13:52;21.77;;;15.90;;
25175;SDS011;13135;55.166;61.286;2023-07-08T17:17:02;21.98;;;15.30;;
25175;SDS011;13135;55.166;61.286;2023-07-08T17:23:26;26.92;;;19.77;;
25175;SDS011;13135;55.166;61.286;2023-07-08T17:26:33;30.62;;;16.05;;
25175;SDS011;13135;55.166;61.286;2023-07-08T17:33:07;19.65;;;14.93;;
25175;SDS011;13135;55.166;61.286;2023-07-08T17:35:53;29.95;;;17.15;;
25175;SDS011;13135;55.166;61.286;2023-07-08T17:42:06;21.83;;;15.95;;
25175;SDS011;13135;55.166;61.286;2023-07-08T17:44:54;24.10;;;15.15;;
25175;SDS011;13135;55.166;61.286;2023-07-08T17:51:00;23.23;;;15.68;;
25175;SDS011;13135;55.166;61.286;2023-07-08T17:57:07;27.83;;;17.70;;
25175;SDS011;13135;55.166;61.286;2023-07-08T18:00:09;25.17;;;15.50;;
25175;SDS011;13135;55.166;61.286;2023-07-08T18:06:37;26.33;;;16.30;;
25175;SDS011;13135;55.166;61.286;2023-07-08T18:09:39;25.52;;;17.55;;
25175;SDS011;13135;55.166;61.286;2023-07-08T18:25:51;29.92;;;20.35;;
25175;SDS011;13135;55.166;61.286;2023-07-08T18:28:36;35.40;;;19.50;;
25175;SDS011;13135;55.166;61.286;2023-07-08T18:31:21;31.10;;;19.17;;
25175;SDS011;13135;55.166;61.286;2023-07-08T18:34:06;24.60;;;17.60;;
25175;SDS011;13135;55.166;61.286;2023-07-08T18:36:50;37.20;;;19.42;;
25175;SDS011;13135;55.166;61.286;2023-07-08T18:39:35;27.70;;;17.92;;
25175;SDS011;13135;55.166;61.286;2023-07-08T18:42:19;32.60;;;19.35;;
25175;SDS011;13135;55.166;61.286;2023-07-08T18:45:04;30.65;;;19.30;;
25175;SDS011;13135;55.166;61.286;2023-07-08T18:47:50;29.65;;;18.00;;
25175;SDS011;13135;55.166;61.286;2023-07-08T18:50:36;30.33;;;18.50;;
25175;SDS011;13135;55.166;61.286;2023-07-08T18:53:22;24.87;;;17.15;;
25175;SDS011;13135;55.166;61.286;2023-07-08T19:02:58;29.10;;;19.85;;
25175;SDS011;13135;55.166;61.286;2023-07-08T19:05:43;27.90;;;18.62;;
25175;SDS011;13135;55.166;61.286;2023-07-08T19:08:27;30.02;;;20.52;;
25175;SDS011;13135;55.166;61.286;2023-07-08T19:11:15;34.20;;;20.35;;
25175;SDS011;13135;55.166;61.286;2023-07-08T19:14:02;26.20;;;18.02;;
25175;SDS011;13135;55.166;61.286;2023-07-08T19:16:49;28.15;;;17.52;;
25175;SDS011;13135;55.166;61.286;2023-07-08T19:19:40;27.25;;;18.48;;
25175;SDS011;13135;55.166;61.286;2023-07-08T19:26:02;30.67;;;19.30;;
25175;SDS011;13135;55.166;61.286;2023-07-08T19:28:47;32.30;;;19.73;;
25175;SDS011;13135;55.166;61.286;2023-07-08T19:31:32;31.05;;;20.27;;
25175;SDS011;13135;55.166;61.286;2023-07-08T19:34:15;31.50;;;19.40;;